Osorio, Brazil
Current Conditions -  °F | °C
As of 6:00 AM on Friday 24 Oct 2014 (Local Time) from SBCO Reporting Station
Moderate Fog Moderate Fog  
Wind Chill: 63°   Ceiling: 200
Heat Index: 63°   Visibility: 0.25mi
Dew Point: 63°   Wind: 0mph
Humidity: 100%   Direction: NA
Pressure: NA   Gusts: NA
Location:  29.89°S, 50.27°W
Report Text: SBCO 240800Z 00000KT 0400 R12/1300 R30/1400 FG OVC002 17/17 Q1014
Loading
Personal Weather Stations






























Interactive Weather Map
Tropical Storm Tracking
New forecast layout! Learn more

10-Day Weather Forecast

Advertisements
Track Severe Weather on mobile